sensor_id;sensor_type;location;lat;lon;timestamp;temperature;humidity
81031;SHT31;70513;51.984;5.648;2023-07-08T12:40:25;36.5;31.1
81031;SHT31;70513;51.984;5.648;2023-07-08T12:42:55;36.5;34.7
81031;SHT31;70513;51.984;5.648;2023-07-08T12:45:24;36.6;32.1
81031;SHT31;70513;51.984;5.648;2023-07-08T12:47:53;36.6;33.6
81031;SHT31;70513;51.984;5.648;2023-07-08T12:50:21;36.7;32.0
81031;SHT31;70513;51.984;5.648;2023-07-08T12:52:50;36.7;30.8
81031;SHT31;70513;51.984;5.648;2023-07-08T12:55:19;36.8;29.7
81031;SHT31;70513;51.984;5.648;2023-07-08T12:57:50;36.9;31.2
81031;SHT31;70513;51.984;5.648;2023-07-08T13:00:24;37.0;29.8
81031;SHT31;70513;51.984;5.648;2023-07-08T13:02:58;37.0;30.9
81031;SHT31;70513;51.984;5.648;2023-07-08T13:05:28;37.0;31.0
81031;SHT31;70513;51.984;5.648;2023-07-08T13:07:58;37.0;31.7
81031;SHT31;70513;51.984;5.648;2023-07-08T13:10:29;37.0;32.2
81031;SHT31;70513;51.984;5.648;2023-07-08T13:13:01;37.0;29.6
81031;SHT31;70513;51.984;5.648;2023-07-08T13:15:34;36.9;31.2
81031;SHT31;70513;51.984;5.648;2023-07-08T13:18:09;36.9;31.6
81031;SHT31;70513;51.984;5.648;2023-07-08T13:20:43;36.8;31.4
81031;SHT31;70513;51.984;5.648;2023-07-08T13:23:12;36.8;30.8
81031;SHT31;70513;51.984;5.648;2023-07-08T13:25:41;36.7;30.1
81031;SHT31;70513;51.984;5.648;2023-07-08T13:28:19;36.7;31.7
81031;SHT31;70513;51.984;5.648;2023-07-08T13:30:53;36.7;30.6
81031;SHT31;70513;51.984;5.648;2023-07-08T13:33:23;36.6;31.8
81031;SHT31;70513;51.984;5.648;2023-07-08T13:35:53;36.6;29.5
81031;SHT31;70513;51.984;5.648;2023-07-08T13:38:24;36.6;29.6
81031;SHT31;70513;51.984;5.648;2023-07-08T13:40:56;36.5;31.1
81031;SHT31;70513;51.984;5.648;2023-07-08T13:43:27;36.5;29.6
81031;SHT31;70513;51.984;5.648;2023-07-08T13:45:58;36.5;31.6
81031;SHT31;70513;51.984;5.648;2023-07-08T13:48:30;36.5;31.0
81031;SHT31;70513;51.984;5.648;2023-07-08T13:51:05;36.4;30.9
81031;SHT31;70513;51.984;5.648;2023-07-08T13:53:44;36.4;31.5
81031;SHT31;70513;51.984;5.648;2023-07-08T13:56:19;36.3;30.4
81031;SHT31;70513;51.984;5.648;2023-07-08T13:58:50;36.3;30.7
81031;SHT31;70513;51.984;5.648;2023-07-08T14:01:22;36.3;31.0
81031;SHT31;70513;51.984;5.648;2023-07-08T14:03:54;36.3;31.8
81031;SHT31;70513;51.984;5.648;2023-07-08T14:06:26;36.2;31.5
81031;SHT31;70513;51.984;5.648;2023-07-08T14:08:57;36.2;29.4
81031;SHT31;70513;51.984;5.648;2023-07-08T14:11:26;36.2;31.1
81031;SHT31;70513;51.984;5.648;2023-07-08T14:13:55;36.2;31.9
81031;SHT31;70513;51.984;5.648;2023-07-08T14:16:27;36.2;34.0
81031;SHT31;70513;51.984;5.648;2023-07-08T14:18:59;36.1;32.1
81031;SHT31;70513;51.984;5.648;2023-07-08T14:21:29;36.1;30.0
81031;SHT31;70513;51.984;5.648;2023-07-08T14:24:00;36.1;32.6
81031;SHT31;70513;51.984;5.648;2023-07-08T14:26:30;36.0;31.9
81031;SHT31;70513;51.984;5.648;2023-07-08T14:35:58;36.2;30.9
81031;SHT31;70513;51.984;5.648;2023-07-08T14:38:27;36.1;31.3
81031;SHT31;70513;51.984;5.648;2023-07-08T14:40:55;36.1;30.3
81031;SHT31;70513;51.984;5.648;2023-07-08T14:43:28;36.1;31.7
81031;SHT31;70513;51.984;5.648;2023-07-08T14:45:59;36.0;31.2
81031;SHT31;70513;51.984;5.648;2023-07-08T14:48:30;36.0;31.9
81031;SHT31;70513;51.984;5.648;2023-07-08T14:50:59;36.0;32.0
81031;SHT31;70513;51.984;5.648;2023-07-08T14:53:28;35.9;32.3
81031;SHT31;70513;51.984;5.648;2023-07-08T14:55:57;35.8;31.8
81031;SHT31;70513;51.984;5.648;2023-07-08T14:58:29;35.8;30.9
81031;SHT31;70513;51.984;5.648;2023-07-08T15:01:00;35.7;31.5
81031;SHT31;70513;51.984;5.648;2023-07-08T15:03:33;35.6;30.4
81031;SHT31;70513;51.984;5.648;2023-07-08T15:06:02;35.5;32.2
81031;SHT31;70513;51.984;5.648;2023-07-08T15:08:31;35.4;31.5
81031;SHT31;70513;51.984;5.648;2023-07-08T15:11:01;35.3;31.5
81031;SHT31;70513;51.984;5.648;2023-07-08T15:13:33;35.2;32.9
81031;SHT31;70513;51.984;5.648;2023-07-08T15:16:03;35.1;32.9
81031;SHT31;70513;51.984;5.648;2023-07-08T15:18:32;35.1;32.0
81031;SHT31;70513;51.984;5.648;2023-07-08T15:21:02;35.0;33.7
81031;SHT31;70513;51.984;5.648;2023-07-08T15:23:30;35.0;31.5
81031;SHT31;70513;51.984;5.648;2023-07-08T15:25:59;35.0;33.3
81031;SHT31;70513;51.984;5.648;2023-07-08T15:28:40;35.0;32.5
81031;SHT31;70513;51.984;5.648;2023-07-08T15:31:15;35.0;32.5
81031;SHT31;70513;51.984;5.648;2023-07-08T15:33:44;35.0;31.3
81031;SHT31;70513;51.984;5.648;2023-07-08T15:36:13;35.0;32.5
81031;SHT31;70513;51.984;5.648;2023-07-08T15:38:44;34.9;32.7
81031;SHT31;70513;51.984;5.648;2023-07-08T15:41:20;34.8;32.1
81031;SHT31;70513;51.984;5.648;2023-07-08T15:43:52;34.8;33.4
81031;SHT31;70513;51.984;5.648;2023-07-08T15:46:22;34.7;33.6
81031;SHT31;70513;51.984;5.648;2023-07-08T15:48:55;34.6;34.1
81031;SHT31;70513;51.984;5.648;2023-07-08T15:51:24;34.5;33.7
81031;SHT31;70513;51.984;5.648;2023-07-08T15:53:52;34.5;34.0
81031;SHT31;70513;51.984;5.648;2023-07-08T15:56:21;34.4;34.4
81031;SHT31;70513;51.984;5.648;2023-07-08T15:58:51;34.4;34.6
81031;SHT31;70513;51.984;5.648;2023-07-08T16:01:23;34.3;34.1
81031;SHT31;70513;51.984;5.648;2023-07-08T16:03:52;34.3;33.8
81031;SHT31;70513;51.984;5.648;2023-07-08T16:06:21;34.2;34.3
81031;SHT31;70513;51.984;5.648;2023-07-08T16:08:49;34.1;34.8
81031;SHT31;70513;51.984;5.648;2023-07-08T16:11:22;34.1;34.8
81031;SHT31;70513;51.984;5.648;2023-07-08T16:13:53;34.0;36.5
81031;SHT31;70513;51.984;5.648;2023-07-08T16:16:21;33.9;35.7
81031;SHT31;70513;51.984;5.648;2023-07-08T16:18:51;33.9;35.4
81031;SHT31;70513;51.984;5.648;2023-07-08T16:21:20;33.8;34.7
81031;SHT31;70513;51.984;5.648;2023-07-08T16:23:49;33.8;35.0
81031;SHT31;70513;51.984;5.648;2023-07-08T16:26:17;33.7;35.4
81031;SHT31;70513;51.984;5.648;2023-07-08T16:28:48;33.7;35.7
81031;SHT31;70513;51.984;5.648;2023-07-08T16:31:21;33.7;35.5
81031;SHT31;70513;51.984;5.648;2023-07-08T16:33:50;33.6;35.1
81031;SHT31;70513;51.984;5.648;2023-07-08T16:36:20;33.6;36.2
81031;SHT31;70513;51.984;5.648;2023-07-08T16:38:50;33.5;39.7
81031;SHT31;70513;51.984;5.648;2023-07-08T16:41:20;33.5;40.5
81031;SHT31;70513;51.984;5.648;2023-07-08T16:43:49;33.4;39.2
81031;SHT31;70513;51.984;5.648;2023-07-08T16:46:21;33.4;39.3
81031;SHT31;70513;51.984;5.648;2023-07-08T16:48:49;33.3;40.2
81031;SHT31;70513;51.984;5.648;2023-07-08T16:51:22;33.3;39.7
81031;SHT31;70513;51.984;5.648;2023-07-08T16:54:00;33.2;40.0
81031;SHT31;70513;51.984;5.648;2023-07-08T16:56:29;33.2;39.8
81031;SHT31;70513;51.984;5.648;2023-07-08T16:58:58;33.2;41.2
81031;SHT31;70513;51.984;5.648;2023-07-08T17:01:27;33.1;42.3
81031;SHT31;70513;51.984;5.648;2023-07-08T17:03:57;33.1;42.0
81031;SHT31;70513;51.984;5.648;2023-07-08T17:06:26;33.1;41.7
81031;SHT31;70513;51.984;5.648;2023-07-08T17:08:55;33.0;41.2
81031;SHT31;70513;51.984;5.648;2023-07-08T17:11:25;33.0;41.8
81031;SHT31;70513;51.984;5.648;2023-07-08T17:13:53;33.0;40.9
81031;SHT31;70513;51.984;5.648;2023-07-08T17:16:28;33.0;41.1
81031;SHT31;70513;51.984;5.648;2023-07-08T17:18:58;32.9;39.8
81031;SHT31;70513;51.984;5.648;2023-07-08T17:21:27;32.9;38.8
81031;SHT31;70513;51.984;5.648;2023-07-08T17:23:56;32.9;38.2
81031;SHT31;70513;51.984;5.648;2023-07-08T17:26:24;32.9;38.6
81031;SHT31;70513;51.984;5.648;2023-07-08T17:28:53;32.9;38.0
81031;SHT31;70513;51.984;5.648;2023-07-08T17:31:23;32.8;38.3
81031;SHT31;70513;51.984;5.648;2023-07-08T17:33:54;32.8;39.0
81031;SHT31;70513;51.984;5.648;2023-07-08T17:36:28;32.8;38.5
81031;SHT31;70513;51.984;5.648;2023-07-08T17:38:58;32.8;38.5
81031;SHT31;70513;51.984;5.648;2023-07-08T17:41:27;32.7;39.1
81031;SHT31;70513;51.984;5.648;2023-07-08T17:43:57;32.7;39.2
81031;SHT31;70513;51.984;5.648;2023-07-08T17:46:28;32.7;38.6
81031;SHT31;70513;51.984;5.648;2023-07-08T17:48:58;32.7;38.6
81031;SHT31;70513;51.984;5.648;2023-07-08T17:51:30;32.7;38.7
81031;SHT31;70513;51.984;5.648;2023-07-08T17:54:01;32.6;38.0
81031;SHT31;70513;51.984;5.648;2023-07-08T17:56:33;32.6;38.1
81031;SHT31;70513;51.984;5.648;2023-07-08T17:59:04;32.6;37.8
81031;SHT31;70513;51.984;5.648;2023-07-08T18:01:33;32.5;37.9
81031;SHT31;70513;51.984;5.648;2023-07-08T18:04:02;32.5;38.2
81031;SHT31;70513;51.984;5.648;2023-07-08T18:06:30;32.5;38.0
81031;SHT31;70513;51.984;5.648;2023-07-08T18:08:59;32.4;37.8
81031;SHT31;70513;51.984;5.648;2023-07-08T18:11:28;32.4;36.2
81031;SHT31;70513;51.984;5.648;2023-07-08T18:13:57;32.4;39.2
81031;SHT31;70513;51.984;5.648;2023-07-08T18:16:26;32.4;38.1
81031;SHT31;70513;51.984;5.648;2023-07-08T18:18:55;32.4;39.2
81031;SHT31;70513;51.984;5.648;2023-07-08T18:21:25;32.4;38.8
81031;SHT31;70513;51.984;5.648;2023-07-08T18:23:54;32.4;37.7
81031;SHT31;70513;51.984;5.648;2023-07-08T18:26:24;32.3;37.9
81031;SHT31;70513;51.984;5.648;2023-07-08T18:28:54;32.3;38.7
81031;SHT31;70513;51.984;5.648;2023-07-08T18:31:27;32.3;39.0
81031;SHT31;70513;51.984;5.648;2023-07-08T18:33:59;32.3;39.3
81031;SHT31;70513;51.984;5.648;2023-07-08T18:36:31;32.3;40.3
81031;SHT31;70513;51.984;5.648;2023-07-08T18:39:02;32.3;40.2
81031;SHT31;70513;51.984;5.648;2023-07-08T18:41:39;32.2;39.9
81031;SHT31;70513;51.984;5.648;2023-07-08T18:44:16;32.2;39.5
81031;SHT31;70513;51.984;5.648;2023-07-08T18:46:48;32.2;39.6
81031;SHT31;70513;51.984;5.648;2023-07-08T18:49:16;32.2;40.1
81031;SHT31;70513;51.984;5.648;2023-07-08T18:51:45;32.1;40.0
81031;SHT31;70513;51.984;5.648;2023-07-08T18:54:17;32.1;40.8
81031;SHT31;70513;51.984;5.648;2023-07-08T18:56:47;32.1;40.5
81031;SHT31;70513;51.984;5.648;2023-07-08T18:59:16;32.1;40.4
81031;SHT31;70513;51.984;5.648;2023-07-08T19:01:46;32.1;40.0
81031;SHT31;70513;51.984;5.648;2023-07-08T19:04:21;32.0;40.6
81031;SHT31;70513;51.984;5.648;2023-07-08T19:06:53;32.0;42.4
81031;SHT31;70513;51.984;5.648;2023-07-08T19:09:24;32.0;43.0
81031;SHT31;70513;51.984;5.648;2023-07-08T19:11:52;32.0;43.4
81031;SHT31;70513;51.984;5.648;2023-07-08T19:14:23;31.9;43.2
81031;SHT31;70513;51.984;5.648;2023-07-08T19:16:51;31.9;43.5
81031;SHT31;70513;51.984;5.648;2023-07-08T19:19:20;31.8;44.0
81031;SHT31;70513;51.984;5.648;2023-07-08T19:21:56;31.8;43.6
81031;SHT31;70513;51.984;5.648;2023-07-08T19:24:23;31.7;44.0
81031;SHT31;70513;51.984;5.648;2023-07-08T19:26:51;31.6;44.9
81031;SHT31;70513;51.984;5.648;2023-07-08T19:29:19;31.5;44.7
81031;SHT31;70513;51.984;5.648;2023-07-08T19:31:48;31.4;45.7
81031;SHT31;70513;51.984;5.648;2023-07-08T19:34:17;31.3;46.1
81031;SHT31;70513;51.984;5.648;2023-07-08T19:36:45;31.2;46.7
81031;SHT31;70513;51.984;5.648;2023-07-08T19:39:15;31.1;47.2
81031;SHT31;70513;51.984;5.648;2023-07-08T19:41:43;31.0;47.5
81031;SHT31;70513;51.984;5.648;2023-07-08T19:44:19;30.9;46.8
81031;SHT31;70513;51.984;5.648;2023-07-08T19:46:48;30.8;47.2
81031;SHT31;70513;51.984;5.648;2023-07-08T19:49:16;30.7;48.0
81031;SHT31;70513;51.984;5.648;2023-07-08T19:51:45;30.6;48.0
81031;SHT31;70513;51.984;5.648;2023-07-08T19:54:13;30.5;48.0
81031;SHT31;70513;51.984;5.648;2023-07-08T19:56:42;30.4;48.5
81031;SHT31;70513;51.984;5.648;2023-07-08T19:59:13;30.3;48.7
81031;SHT31;70513;51.984;5.648;2023-07-08T20:01:43;30.2;49.4
81031;SHT31;70513;51.984;5.648;2023-07-08T20:04:12;30.1;49.0
81031;SHT31;70513;51.984;5.648;2023-07-08T20:06:43;30.0;50.2
81031;SHT31;70513;51.984;5.648;2023-07-08T20:09:12;29.9;50.7
81031;SHT31;70513;51.984;5.648;2023-07-08T20:11:41;29.8;49.9
81031;SHT31;70513;51.984;5.648;2023-07-08T20:14:11;29.7;49.7
81031;SHT31;70513;51.984;5.648;2023-07-08T20:16:41;29.6;50.5
81031;SHT31;70513;51.984;5.648;2023-07-08T20:19:18;29.5;51.2
81031;SHT31;70513;51.984;5.648;2023-07-08T20:21:48;29.4;51.4
81031;SHT31;70513;51.984;5.648;2023-07-08T20:24:16;29.3;51.1
81031;SHT31;70513;51.984;5.648;2023-07-08T20:26:45;29.2;50.6
81031;SHT31;70513;51.984;5.648;2023-07-08T20:29:17;29.1;51.3
81031;SHT31;70513;51.984;5.648;2023-07-08T20:31:46;29.0;52.1
81031;SHT31;70513;51.984;5.648;2023-07-08T20:34:14;28.9;54.2
81031;SHT31;70513;51.984;5.648;2023-07-08T20:36:44;28.8;53.5
81031;SHT31;70513;51.984;5.648;2023-07-08T20:39:17;28.8;52.7
81031;SHT31;70513;51.984;5.648;2023-07-08T20:41:48;28.7;53.5
81031;SHT31;70513;51.984;5.648;2023-07-08T20:44:18;28.6;53.7
81031;SHT31;70513;51.984;5.648;2023-07-08T20:46:47;28.5;54.0
